CheckWX is a tool to help pilots better visualize weather data.  It is not intended as a substitute for an official pre-flight weather briefing.

03:38:40 UTC

KLCQ METAR
Lake City Gateway Airport
Lake City, Florida, USA
Current

24 mins ago

KLCQ 020315Z AUTO 08004KT 10SM CLR 22/17 A3019 RMK AO2
Observed
Jun-2 @ 03:15 UTC
Wind
  • 080° at 4 KTS
Visibility
Flight Rules
VFR
Cloud Levels
  • Clear skies
Temperature
22°C / 72°F
Dewpoint
17°C / 63°F
Humidity
73%
Altimeter
30.19" Hg
Pressure
1022.32 hPa
Previous

44 mins ago

KLCQ 020255Z AUTO 08004KT 10SM CLR 22/17 A3019 RMK AO2
Observed
Jun-2 @ 02:55 UTC
Wind
  • 080° at 4 KTS
Visibility
Flight Rules
VFR
Cloud Levels
  • Clear skies
Temperature
22°C / 72°F
Dewpoint
17°C / 63°F
Humidity
73%
Altimeter
30.19" Hg
Pressure
1022.32 hPa
Previous

1 hour ago

KLCQ 020235Z AUTO 09003KT 10SM CLR 22/17 A3018 RMK AO2
Observed
Jun-2 @ 02:35 UTC
Wind
  • 090° at 3 KTS
Visibility
Flight Rules
VFR
Cloud Levels
  • Clear skies
Temperature
22°C / 72°F
Dewpoint
17°C / 63°F
Humidity
73%
Altimeter
30.18" Hg
Pressure
1022.02 hPa